Time;durP1;ratioP1;P1;durP2;ratioP2;P2;SDS_P1;SDS_P2;PMS_P1;PMS_P2;Temp;Humidity;BMP_temperature;BMP_pressure;BME280_temperature;BME280_humidity;BME280_pressure;Samples;Min_cycle;Max_cycle;Signal;HPM_P1;HPM_P2
2023/07/01 00:01:39;662991.00;2.21;1143.12;46910.00;0.16;81.84;;;;;20.70;4.20;;;;;;2269617;61;1268;-87
2023/07/01 00:04:06;112421.00;0.37;195.01;0.00;0.00;0.62;;;;;20.80;4.40;;;;;;2272661;55;3650;-89
2023/07/01 00:11:37;506612.00;1.69;873.21;0.00;0.00;0.62;;;;;20.70;4.10;;;;;;2269286;61;1389;-89
2023/07/01 00:14:04;51566.00;0.17;89.89;0.00;0.00;0.62;;;;;20.80;3.50;;;;;;2271457;55;3777;-86
2023/07/01 00:16:31;92357.00;0.31;160.38;0.00;0.00;0.62;;;;;20.70;3.80;;;;;;2271740;61;989;-88
2023/07/01 00:18:58;76878.00;0.26;133.64;0.00;0.00;0.62;;;;;20.70;4.80;;;;;;2280144;40;3595;-85
2023/07/01 00:21:26;157048.00;0.52;271.95;31043.00;0.10;54.39;;;;;20.80;2.80;;;;;;2271942;61;898;-87
2023/07/01 00:23:53;214068.00;0.71;370.14;42469.00;0.14;74.16;;;;;20.70;3.30;;;;;;2271654;61;2025;-87
2023/07/01 00:26:20;293988.00;0.98;507.59;65350.00;0.22;113.72;;;;;20.80;2.60;;;;;;2290154;40;3765;-89
2023/07/01 00:28:48;425110.00;1.42;732.98;4359.00;0.01;8.17;;;;;20.80;2.40;;;;;;2273433;55;3797;-87
2023/07/01 00:31:15;437508.00;1.46;754.30;56490.00;0.19;98.41;;;;;20.90;2.70;;;;;;2278907;56;3747;-89
2023/07/01 00:33:42;126806.00;0.42;219.82;0.00;0.00;0.62;;;;;21.00;1.80;;;;;;2272501;61;906;-88
2023/07/01 00:36:09;38183.00;0.13;66.74;0.00;0.00;0.62;;;;;21.00;1.50;;;;;;2275075;39;3613;-86
2023/07/01 00:38:36;95010.00;0.32;164.96;0.00;0.00;0.62;;;;;21.10;1.30;;;;;;2298999;40;3653;-88
2023/07/01 00:41:03;363245.00;1.21;626.63;80270.00;0.27;139.50;;;;;21.30;1.30;;;;;;2272524;61;1702;-87
2023/07/01 00:46:01;498459.00;1.66;859.17;0.00;0.00;0.62;;;;;21.60;1.00;;;;;;2270219;61;1194;-88
2023/07/01 00:48:29;34576.00;0.12;60.50;0.00;0.00;0.62;;;;;21.70;1.00;;;;;;2268374;61;1359;-87
2023/07/01 00:50:57;135551.00;0.45;234.90;33458.00;0.11;58.57;;;;;21.60;1.00;;;;;;2268467;61;1059;-88
2023/07/01 00:53:24;108263.00;0.36;187.83;0.00;0.00;0.62;;;;;21.30;1.00;;;;;;2268289;61;1561;-89
2023/07/01 00:55:53;70997.00;0.24;123.48;0.00;0.00;0.62;;;;;21.30;1.00;;;;;;2268362;61;1693;-89
2023/07/01 01:03:27;759491.00;2.53;1310.56;145495.00;0.48;252.04;;;;;20.40;3.00;;;;;;2270328;61;1906;-88
2023/07/01 01:06:04;91165.00;0.30;158.32;0.00;0.00;0.62;;;;;20.30;3.60;;;;;;2280820;40;3580;-87
2023/07/01 01:08:40;53252.00;0.18;92.81;0.00;0.00;0.62;;;;;20.50;2.90;;;;;;2272454;61;1712;-87
2023/07/01 01:13:43;398433.00;1.33;687.11;0.00;0.00;0.62;;;;;20.60;1.90;;;;;;2270165;61;1411;-86
2023/07/01 01:18:44;324112.00;1.08;559.37;0.00;0.00;0.62;;;;;20.50;2.50;;;;;;2270556;61;1317;-87
2023/07/01 01:26:19;446078.00;1.49;769.04;0.00;0.00;0.62;;;;;21.00;1.00;;;;;;2270158;61;1415;-89
2023/07/01 01:28:48;445072.00;1.48;767.31;53853.00;0.18;93.85;;;;;21.30;1.00;;;;;;2268343;61;1437;-85
2023/07/01 01:33:44;297318.00;0.99;513.31;0.00;0.00;0.62;;;;;21.70;1.00;;;;;;2269753;61;1337;-87
2023/07/01 01:36:19;62931.00;0.21;109.54;0.00;0.00;0.62;;;;;21.80;1.00;;;;;;2268258;61;1570;-89
2023/07/01 01:38:47;282001.00;0.94;486.98;52773.00;0.18;91.98;;;;;21.70;1.00;;;;;;2268303;61;1341;-87
2023/07/01 01:41:21;50733.00;0.17;88.45;0.00;0.00;0.62;;;;;21.80;1.00;;;;;;2268322;61;1729;-87
2023/07/01 01:43:55;88376.00;0.29;153.50;0.00;0.00;0.62;;;;;22.00;1.00;;;;;;2268169;61;2009;-87
2023/07/01 01:46:25;0.00;0.00;0.62;0.00;0.00;0.62;;;;;21.90;1.00;;;;;;2268277;61;1784;-88
2023/07/01 01:48:54;294729.00;0.98;508.86;26976.00;0.09;47.35;;;;;21.80;1.00;;;;;;2268311;61;1434;-88
2023/07/01 01:53:52;340320.00;1.13;587.22;0.00;0.00;0.62;;;;;22.00;1.00;;;;;;2266296;61;1351;-89
2023/07/01 01:58:53;373043.00;1.24;643.47;0.00;0.00;0.62;;;;;22.10;1.00;;;;;;2270002;61;1419;-86
2023/07/01 02:01:20;68934.00;0.23;119.92;0.00;0.00;0.62;;;;;22.00;1.00;;;;;;2268251;61;1550;-89
2023/07/01 02:03:47;135452.00;0.45;234.73;0.00;0.00;0.62;;;;;22.10;1.00;;;;;;2268252;61;2002;-87
2023/07/01 02:06:15;62437.00;0.21;108.69;0.00;0.00;0.62;;;;;22.20;1.00;;;;;;2268168;61;1715;-90
2023/07/01 02:08:41;56257.00;0.19;98.01;0.00;0.00;0.62;;;;;22.20;1.00;;;;;;2268002;61;1727;-89
2023/07/01 02:11:08;106864.00;0.36;185.42;0.00;0.00;0.62;;;;;22.00;1.00;;;;;;2267973;61;1609;-88
2023/07/01 02:13:35;110635.00;0.37;191.93;0.00;0.00;0.62;;;;;21.90;1.00;;;;;;2268195;61;1593;-88
2023/07/01 02:16:04;50627.00;0.17;88.27;0.00;0.00;0.62;;;;;21.70;1.00;;;;;;2267957;61;1004;-87
2023/07/01 02:18:31;86693.00;0.29;150.60;0.00;0.00;0.62;;;;;21.50;1.00;;;;;;2268008;61;1560;-88
2023/07/01 02:20:58;106446.00;0.35;184.70;0.00;0.00;0.62;;;;;21.50;1.00;;;;;;2268176;61;1614;-87
2023/07/01 02:23:25;127655.00;0.43;221.29;0.00;0.00;0.62;;;;;21.80;1.00;;;;;;2307424;41;3729;-88
2023/07/01 02:25:52;108451.00;0.36;188.16;0.00;0.00;0.62;;;;;21.80;1.00;;;;;;2274501;40;3663;-86
2023/07/01 02:28:19;64289.00;0.21;111.89;0.00;0.00;0.62;;;;;21.60;1.00;;;;;;2272115;61;1591;-88
2023/07/01 02:30:46;204087.00;0.68;352.96;43310.00;0.14;75.61;;;;;21.70;1.00;;;;;;2272039;61;1736;-88
2023/07/01 02:33:15;97582.00;0.33;169.40;0.00;0.00;0.62;;;;;21.80;1.00;;;;;;2271964;61;1701;-87
2023/07/01 02:35:41;114476.00;0.38;198.55;0.00;0.00;0.62;;;;;21.70;1.00;;;;;;2272135;61;1044;-87
2023/07/01 02:40:39;413251.00;1.38;712.59;0.00;0.00;0.62;;;;;21.50;1.00;;;;;;2275114;40;3529;-88
2023/07/01 02:43:06;45117.00;0.15;78.74;0.00;0.00;0.62;;;;;21.30;1.00;;;;;;2272687;61;1996;-89
2023/07/01 02:45:33;42154.00;0.14;73.61;0.00;0.00;0.62;;;;;21.20;1.00;;;;;;2272762;61;944;-91
2023/07/01 02:48:00;228477.00;0.76;394.93;56019.00;0.19;97.59;;;;;20.80;1.00;;;;;;2272715;61;1275;-89
2023/07/01 02:50:29;127513.00;0.43;221.04;4655.00;0.02;8.69;;;;;21.00;1.00;;;;;;2271964;61;1638;-88
2023/07/01 02:55:28;225847.00;0.75;390.40;0.00;0.00;0.62;;;;;21.30;1.00;;;;;;2270668;61;1309;-87
2023/07/01 02:57:55;85736.00;0.29;148.94;0.00;0.00;0.62;;;;;21.40;1.00;;;;;;2268025;61;1745;-88
2023/07/01 03:00:22;519761.00;1.73;895.85;193616.00;0.65;334.93;;;;;21.40;1.00;;;;;;2268004;61;935;-88
2023/07/01 03:02:50;77810.00;0.26;135.25;0.00;0.00;0.62;;;;;21.40;1.00;;;;;;2278499;56;3747;-86
2023/07/01 03:05:19;99153.00;0.33;172.11;0.00;0.00;0.62;;;;;21.40;1.00;;;;;;2271994;61;1347;-89
2023/07/01 03:07:47;80587.00;0.27;140.05;0.00;0.00;0.62;;;;;21.40;1.00;;;;;;2271890;61;1791;-87
2023/07/01 03:12:48;226729.00;0.76;391.92;0.00;0.00;0.62;;;;;21.50;1.00;;;;;;2270312;61;1461;-88
2023/07/01 03:15:15;81037.00;0.27;140.83;0.00;0.00;0.62;;;;;21.50;1.00;;;;;;2268637;61;1584;-91
2023/07/01 03:17:42;251466.00;0.84;434.47;85560.00;0.29;148.64;;;;;21.20;1.00;;;;;;2268548;61;1729;-90
2023/07/01 03:20:22;23717.00;0.08;41.71;0.00;0.00;0.62;;;;;21.00;1.00;;;;;;2268613;61;1566;-88
2023/07/01 03:22:51;44472.00;0.15;77.62;0.00;0.00;0.62;;;;;21.10;1.00;;;;;;2280308;40;3602;-91
2023/07/01 03:25:18;72653.00;0.24;126.34;0.00;0.00;0.62;;;;;21.10;1.00;;;;;;2272684;61;1079;-90
2023/07/01 03:27:45;55595.00;0.19;96.86;0.00;0.00;0.62;;;;;21.20;1.00;;;;;;2272613;61;1258;-89
2023/07/01 03:30:14;26097.00;0.09;45.83;0.00;0.00;0.62;;;;;21.20;1.00;;;;;;2272614;61;1570;-89
2023/07/01 03:32:41;313611.00;1.05;541.32;53485.00;0.18;93.21;;;;;21.10;1.00;;;;;;2271944;61;1751;-88
2023/07/01 03:35:09;418648.00;1.40;721.87;88930.00;0.30;154.46;;;;;21.00;1.00;;;;;;2271855;61;1650;-88
2023/07/01 03:37:36;76336.00;0.25;132.71;0.00;0.00;0.62;;;;;20.90;1.00;;;;;;2271794;61;1342;-88
2023/07/01 03:40:10;211409.00;0.70;365.56;67846.00;0.23;118.04;;;;;20.90;1.00;;;;;;2271971;61;1587;-89
2023/07/01 03:42:37;55413.00;0.18;96.55;0.00;0.00;0.62;;;;;21.00;1.00;;;;;;2271960;61;1164;-88
2023/07/01 03:45:05;177046.00;0.59;306.40;25942.00;0.09;45.56;;;;;21.30;1.00;;;;;;2271783;61;1930;-89
2023/07/01 03:47:32;19576.00;0.07;34.54;0.00;0.00;0.62;;;;;21.50;1.00;;;;;;2272013;61;1264;-88
2023/07/01 03:49:59;32332.00;0.11;56.62;0.00;0.00;0.62;;;;;21.50;1.00;;;;;;2271777;61;1684;-88
2023/07/01 03:52:26;53962.00;0.18;94.04;0.00;0.00;0.62;;;;;21.30;1.00;;;;;;2271842;61;1725;-87
2023/07/01 03:54:53;67371.00;0.22;117.22;0.00;0.00;0.62;;;;;21.40;1.00;;;;;;2271888;61;1752;-87
2023/07/01 03:57:21;103614.00;0.35;179.81;0.00;0.00;0.62;;;;;21.50;1.00;;;;;;2272056;55;3755;-89
2023/07/01 03:59:48;299514.00;1.00;517.08;114133.00;0.38;197.96;;;;;21.70;1.00;;;;;;2267758;61;1640;-87
2023/07/01 04:02:15;123302.00;0.41;213.78;0.00;0.00;0.62;;;;;21.90;1.00;;;;;;2267811;61;1664;-89
2023/07/01 04:04:43;53418.00;0.18;93.10;0.00;0.00;0.62;;;;;22.00;1.00;;;;;;2268477;40;3606;-88
2023/07/01 04:07:10;280582.00;0.94;484.54;43006.00;0.14;75.09;;;;;22.30;1.00;;;;;;2272148;61;1732;-87
2023/07/01 04:12:05;240595.00;0.80;415.77;0.00;0.00;0.62;;;;;22.80;1.00;;;;;;2270383;61;1421;-88
2023/07/01 04:14:34;124435.00;0.41;215.73;0.00;0.00;0.62;;;;;22.90;1.00;;;;;;2268589;61;1020;-86
2023/07/01 04:19:31;408455.00;1.36;704.34;0.00;0.00;0.62;;;;;22.60;1.00;;;;;;2270306;61;1421;-87
2023/07/01 04:21:58;32995.00;0.11;57.77;0.00;0.00;0.62;;;;;22.70;1.00;;;;;;2268473;61;1005;-89
2023/07/01 04:24:24;58698.00;0.20;102.23;0.00;0.00;0.62;;;;;22.60;1.00;;;;;;2268504;61;1919;-87
2023/07/01 04:29:19;397647.00;1.33;685.76;0.00;0.00;0.62;;;;;22.80;1.00;;;;;;2270051;61;1417;-87
2023/07/01 04:31:47;237033.00;0.79;409.65;16247.00;0.05;28.77;;;;;22.70;1.00;;;;;;2268469;61;1011;-87
2023/07/01 04:34:14;124043.00;0.41;215.06;0.00;0.00;0.62;;;;;22.60;1.00;;;;;;2268499;61;997;-88
2023/07/01 04:36:41;65029.00;0.22;113.17;0.00;0.00;0.62;;;;;22.60;1.00;;;;;;2268544;61;1373;-88
2023/07/01 04:39:09;77514.00;0.26;134.74;0.00;0.00;0.62;;;;;22.50;1.00;;;;;;2268448;61;1730;-86
2023/07/01 04:41:36;81304.00;0.27;141.29;0.00;0.00;0.62;;;;;22.50;1.00;;;;;;2268439;61;1716;-88
2023/07/01 04:44:03;72140.00;0.24;125.46;0.00;0.00;0.62;;;;;22.70;1.00;;;;;;2268377;61;1997;-85
2023/07/01 04:46:31;25568.00;0.09;44.91;0.00;0.00;0.62;;;;;22.90;1.00;;;;;;2268417;61;1007;-87
2023/07/01 04:49:00;188641.00;0.63;326.37;36392.00;0.12;63.65;;;;;23.20;1.00;;;;;;2268403;61;1704;-84
2023/07/01 04:51:27;159996.00;0.53;277.03;0.00;0.00;0.62;;;;;23.30;1.00;;;;;;2268433;61;1516;-86
2023/07/01 04:53:54;42339.00;0.14;73.94;0.00;0.00;0.62;;;;;23.40;1.00;;;;;;2268366;61;1123;-88
2023/07/01 04:58:50;879173.00;2.93;1519.57;50394.00;0.17;87.87;;;;;23.60;1.00;;;;;;2269203;61;1280;-88
2023/07/01 05:01:17;67653.00;0.23;117.70;0.00;0.00;0.62;;;;;23.60;1.00;;;;;;2268495;61;1019;-87
2023/07/01 05:03:45;0.00;0.00;0.62;0.00;0.00;0.62;;;;;23.70;1.00;;;;;;2268369;61;1989;-89
2023/07/01 05:06:13;112358.00;0.37;194.90;0.00;0.00;0.62;;;;;23.80;1.00;;;;;;2268275;61;1662;-87
2023/07/01 05:08:40;58663.00;0.20;102.17;0.00;0.00;0.62;;;;;23.70;1.00;;;;;;2268317;61;1399;-87
2023/07/01 05:11:07;117093736.00;390.31;65031908.00;117009216.00;390.03;64891072.00;;;;;23.90;1.00;;;;;;2268405;61;1075;-87
2023/07/01 05:13:34;29092.00;0.10;51.01;0.00;0.00;0.62;;;;;23.80;1.00;;;;;;2268272;61;1763;-87
2023/07/01 05:16:01;51707.00;0.17;90.14;0.00;0.00;0.62;;;;;23.70;1.00;;;;;;2268354;61;950;-87
2023/07/01 05:18:28;186330.00;0.62;322.39;39238.00;0.13;68.57;;;;;23.50;1.00;;;;;;2268239;61;1784;-86
2023/07/01 05:20:54;79772.00;0.27;138.64;0.00;0.00;0.62;;;;;23.40;1.00;;;;;;2268398;61;1019;-85
2023/07/01 05:23:23;18466.00;0.06;32.61;0.00;0.00;0.62;;;;;23.40;1.00;;;;;;2268399;61;1991;-86
2023/07/01 05:25:50;10238.00;0.03;18.36;0.00;0.00;0.62;;;;;23.70;1.00;;;;;;2268410;61;1672;-87
2023/07/01 05:28:17;5033.00;0.02;9.34;0.00;0.00;0.62;;;;;23.70;1.00;;;;;;2268345;61;1778;-85
2023/07/01 05:30:44;59976.00;0.20;104.44;0.00;0.00;0.62;;;;;23.80;1.00;;;;;;2268304;61;1028;-88
2023/07/01 05:33:11;36969.00;0.12;64.64;0.00;0.00;0.62;;;;;23.90;1.00;;;;;;2268371;61;1654;-88
2023/07/01 05:35:38;37788.00;0.13;66.06;0.00;0.00;0.62;;;;;24.00;1.00;;;;;;2268204;61;2077;-88
2023/07/01 05:38:09;184660.00;0.62;319.51;20356.00;0.07;35.89;;;;;24.30;1.00;;;;;;2268169;61;1533;-87
2023/07/01 05:40:37;71600.00;0.24;124.53;0.00;0.00;0.62;;;;;24.30;1.00;;;;;;2268318;61;1193;-86
2023/07/01 05:43:04;82270.00;0.27;142.96;0.00;0.00;0.62;;;;;24.30;1.00;;;;;;2268228;61;1621;-88
2023/07/01 05:45:31;26919.00;0.09;47.25;0.00;0.00;0.62;;;;;25.00;1.00;;;;;;2268333;61;2004;-88
2023/07/01 05:47:59;362537.00;1.21;625.41;90173.00;0.30;156.61;;;;;26.30;1.00;;;;;;2268248;61;1299;-88
2023/07/01 05:50:26;0.00;0.00;0.62;0.00;0.00;0.62;;;;;27.30;1.00;;;;;;2268176;61;1713;-88
2023/07/01 05:52:52;0.00;0.00;0.62;0.00;0.00;0.62;;;;;27.40;1.00;;;;;;2268213;61;1744;-89
2023/07/01 05:55:19;23917.00;0.08;42.05;0.00;0.00;0.62;;;;;27.90;1.00;;;;;;2268274;61;1639;-89
2023/07/01 05:57:48;677958.00;2.26;1169.04;203445.00;0.68;351.85;;;;;28.90;1.00;;;;;;2268149;61;1297;-88
2023/07/01 06:00:15;166766.00;0.56;288.70;0.00;0.00;0.62;;;;;29.10;1.00;;;;;;2268199;61;1692;-89
2023/07/01 06:02:42;70590.00;0.24;122.78;0.00;0.00;0.62;;;;;29.90;1.00;;;;;;2268226;61;1135;-88
2023/07/01 06:05:10;113392.00;0.38;196.68;0.00;0.00;0.62;;;;;29.80;1.00;;;;;;2268240;61;1907;-90
2023/07/01 06:07:36;133892.00;0.45;232.04;0.00;0.00;0.62;;;;;29.60;1.00;;;;;;2268150;61;1699;-88
2023/07/01 06:10:04;60756.00;0.20;105.78;0.00;0.00;0.62;;;;;30.20;1.00;;;;;;2268257;61;1033;-88
2023/07/01 06:12:31;45492.00;0.15;79.39;0.00;0.00;0.62;;;;;31.10;1.00;;;;;;2268150;61;1757;-87
2023/07/01 06:14:59;57770.00;0.19;100.62;0.00;0.00;0.62;;;;;31.70;1.00;;;;;;2268276;61;950;-86
2023/07/01 06:17:26;386180.00;1.29;666.05;136088.00;0.45;235.83;;;;;31.90;1.00;;;;;;2268171;61;1264;-87
2023/07/01 06:19:53;180003.00;0.60;311.49;76728.00;0.26;133.39;;;;;32.30;1.00;;;;;;2268095;61;1704;-87
2023/07/01 06:22:20;99583.00;0.33;172.85;0.00;0.00;0.62;;;;;32.60;1.00;;;;;;2268117;61;1488;-88
2023/07/01 06:24:47;117243000.00;390.81;65281144.00;86047.00;0.29;149.48;;;;;33.30;1.00;;;;;;2268122;61;1998;-88
2023/07/01 06:27:14;682518.00;2.28;1176.94;156395.00;0.52;270.83;;;;;34.50;1.00;;;;;;2268142;61;1248;-88
2023/07/01 06:29:41;123566.00;0.41;214.23;0.00;0.00;0.62;;;;;35.00;1.00;;;;;;2267817;61;1694;-89
2023/07/01 06:32:10;79174.00;0.26;137.61;0.00;0.00;0.62;;;;;34.90;1.00;;;;;;2268204;61;2099;-87
2023/07/01 06:34:37;118917360.00;396.39;68120736.00;72116.00;0.24;125.42;;;;;35.10;1.00;;;;;;2268146;61;958;-87
2023/07/01 06:37:04;308307.00;1.03;532.20;73835.00;0.25;128.39;;;;;35.40;1.00;;;;;;2268140;61;1373;-85
2023/07/01 06:39:32;201858.00;0.67;349.12;69555.00;0.23;120.99;;;;;35.80;1.00;;;;;;2268223;61;1084;-89
2023/07/01 06:41:58;167416.00;0.56;289.82;72539.00;0.24;126.15;;;;;36.30;1.00;;;;;;2268169;61;994;-89
2023/07/01 06:44:25;174780.00;0.58;302.50;76995.00;0.26;133.85;;;;;35.90;1.00;;;;;;2267960;61;1915;-86
2023/07/01 06:46:52;176617.00;0.59;305.66;81741.00;0.27;142.04;;;;;36.60;1.00;;;;;;2267974;61;1306;-90
2023/07/01 06:49:20;176939.00;0.59;306.22;69827.00;0.23;121.46;;;;;36.20;1.00;;;;;;2268068;61;1727;-88
2023/07/01 06:51:48;221275.00;0.74;382.54;67967.00;0.23;118.25;;;;;36.50;1.00;;;;;;2268021;61;1537;-89
2023/07/01 06:54:15;171695.00;0.57;297.19;74568.00;0.25;129.65;;;;;35.90;1.00;;;;;;2268137;61;1646;-88
2023/07/01 06:56:42;173973.00;0.58;301.11;64824.00;0.22;112.82;;;;;36.40;1.00;;;;;;2268051;61;1301;-89
2023/07/01 06:59:09;217505.00;0.73;376.05;75225.00;0.25;130.79;;;;;36.10;1.00;;;;;;2268088;61;1610;-87
2023/07/01 07:01:36;180890.00;0.60;313.02;75522.00;0.25;131.30;;;;;36.10;1.00;;;;;;2268136;61;1145;-88
2023/07/01 07:04:03;174421.00;0.58;301.88;61657.00;0.21;107.34;;;;;36.30;1.00;;;;;;2267965;61;1998;-87
2023/07/01 07:06:31;256588.00;0.86;443.28;61363.00;0.20;106.83;;;;;35.90;1.00;;;;;;2268068;61;1151;-87
2023/07/01 07:08:59;198381.00;0.66;343.14;69033.00;0.23;120.09;;;;;36.00;1.00;;;;;;2267996;61;1317;-88
2023/07/01 07:11:25;278885.00;0.93;481.62;73111.00;0.24;127.14;;;;;36.20;1.00;;;;;;2268128;61;1007;-87
2023/07/01 07:13:52;302383.00;1.01;522.02;80596.00;0.27;140.07;;;;;35.60;1.00;;;;;;2268094;61;1060;-87
2023/07/01 07:16:19;200471.00;0.67;346.73;77018.00;0.26;133.89;;;;;35.30;1.00;;;;;;2267982;61;2096;-87
2023/07/01 07:18:46;321347.00;1.07;554.61;137289.00;0.46;237.90;;;;;34.50;1.00;;;;;;2267965;61;1398;-87
2023/07/01 07:21:13;190496.00;0.63;329.56;76090.00;0.25;132.28;;;;;34.30;1.00;;;;;;2267904;61;1696;-87
2023/07/01 07:23:41;169474.00;0.56;293.36;73258.00;0.24;127.39;;;;;34.10;1.00;;;;;;2268055;61;893;-86
2023/07/01 07:26:08;184477.00;0.61;319.20;80958.00;0.27;140.69;;;;;34.00;1.00;;;;;;2268028;61;2009;-86
2023/07/01 07:28:38;248071.00;0.83;428.63;75896.00;0.25;131.95;;;;;33.20;1.00;;;;;;2267931;61;1409;-88
2023/07/01 07:31:05;249578.00;0.83;431.23;74669.00;0.25;129.83;;;;;33.70;1.00;;;;;;2267914;61;997;-86
2023/07/01 07:33:32;201975.00;0.67;349.32;68618.00;0.23;119.37;;;;;34.30;1.00;;;;;;2268083;61;934;-86
2023/07/01 07:35:59;300486.00;1.00;518.76;139107.00;0.46;241.03;;;;;34.30;1.00;;;;;;2268025;61;1011;-88
2023/07/01 07:38:25;199416.00;0.66;344.92;72202.00;0.24;125.57;;;;;34.00;1.00;;;;;;2267943;61;1405;-88
2023/07/01 07:40:54;188854.00;0.63;326.74;62777.00;0.21;109.28;;;;;34.00;1.00;;;;;;2267961;61;910;-88
2023/07/01 07:43:21;263878.00;0.88;455.82;73481.00;0.24;127.78;;;;;34.40;1.00;;;;;;2267917;61;1744;-89
2023/07/01 07:45:48;190329.00;0.63;329.27;78996.00;0.26;137.30;;;;;34.50;1.00;;;;;;2267984;61;1988;-90
2023/07/01 07:48:15;41730.00;0.14;72.88;0.00;0.00;0.62;;;;;34.10;1.00;;;;;;2267972;61;1272;-88
2023/07/01 07:50:42;100913.00;0.34;175.15;0.00;0.00;0.62;;;;;33.90;1.00;;;;;;2267950;61;1094;-88
2023/07/01 07:53:09;10526.00;0.04;18.86;0.00;0.00;0.62;;;;;34.20;1.00;;;;;;2267969;61;1031;-86
2023/07/01 07:55:35;280937.00;0.94;485.15;0.00;0.00;0.62;;;;;34.40;1.00;;;;;;2267976;61;1047;-88
2023/07/01 07:58:04;48190.00;0.16;84.06;0.00;0.00;0.62;;;;;34.70;1.00;;;;;;2267631;61;1621;-88
2023/07/01 08:00:31;24290.00;0.08;42.70;0.00;0.00;0.62;;;;;35.00;1.00;;;;;;2267866;61;1146;-87
2023/07/01 08:02:58;0.00;0.00;0.62;0.00;0.00;0.62;;;;;35.00;1.00;;;;;;2267962;61;930;-86
2023/07/01 08:05:26;32059.00;0.11;56.15;0.00;0.00;0.62;;;;;35.30;1.00;;;;;;2267888;61;1989;-88
2023/07/01 08:07:53;0.00;0.00;0.62;0.00;0.00;0.62;;;;;34.90;1.00;;;;;;2267803;61;1309;-86
2023/07/01 08:10:20;29703.00;0.10;52.07;0.00;0.00;0.62;;;;;35.10;1.00;;;;;;2267918;61;2357;-88
2023/07/01 08:12:47;101183.00;0.34;175.61;0.00;0.00;0.62;;;;;34.20;1.00;;;;;;2267844;61;1608;-87
2023/07/01 08:15:15;4591.00;0.02;8.58;0.00;0.00;0.62;;;;;33.50;1.00;;;;;;2268032;61;1099;-87
2023/07/01 08:17:42;194515.00;0.65;336.48;78445.00;0.26;136.35;;;;;33.10;1.00;;;;;;2268008;61;1295;-88
2023/07/01 08:20:10;169429.00;0.56;293.28;76005.00;0.25;132.14;;;;;33.00;1.00;;;;;;2267913;61;1737;-87
2023/07/01 08:22:37;177585.00;0.59;307.33;71261.00;0.24;123.94;;;;;32.30;1.00;;;;;;2267915;61;1744;-89
2023/07/01 08:25:05;208985.00;0.70;361.39;74685.00;0.25;129.86;;;;;32.10;1.00;;;;;;2267719;61;1931;-88
2023/07/01 08:27:32;199857.00;0.67;345.68;79890.00;0.27;138.85;;;;;32.70;1.00;;;;;;2267891;61;1764;-89
2023/07/01 08:29:59;191342.00;0.64;331.02;69201.00;0.23;120.38;;;;;32.50;1.00;;;;;;2267902;61;1064;-87
2023/07/01 08:32:27;238764.00;0.80;412.63;73819.00;0.25;128.36;;;;;32.50;1.00;;;;;;2267816;61;1608;-88
2023/07/01 08:34:54;289968.00;0.97;500.67;92489.00;0.31;160.61;;;;;31.70;1.00;;;;;;2267897;61;1546;-87
2023/07/01 08:37:21;348683.00;1.16;601.60;109606.00;0.37;190.15;;;;;31.60;1.00;;;;;;2267997;61;1421;-87
2023/07/01 08:39:48;208164.00;0.69;359.98;60085.00;0.20;104.62;;;;;31.30;1.00;;;;;;2268009;61;1022;-88
2023/07/01 08:42:26;246486.00;0.82;425.91;68091.00;0.23;118.46;;;;;31.60;1.00;;;;;;2267818;61;1134;-87
2023/07/01 08:44:54;278831.00;0.93;481.53;72053.00;0.24;125.31;;;;;31.40;1.00;;;;;;2267821;61;2009;-89
2023/07/01 08:47:23;291394.00;0.97;503.13;67497.00;0.22;117.43;;;;;32.00;1.00;;;;;;2267767;61;1760;-88
2023/07/01 08:49:54;519709.00;1.73;895.76;108773.00;0.36;188.71;;;;;32.70;1.00;;;;;;2267831;61;1020;-87
2023/07/01 08:52:23;351629.00;1.17;606.66;67619.00;0.23;117.65;;;;;33.20;1.00;;;;;;2268171;61;917;-86
2023/07/01 08:54:50;186344.00;0.62;322.41;72299.00;0.24;125.73;;;;;33.20;1.00;;;;;;2268456;61;1107;-87
2023/07/01 08:57:20;379356.00;1.26;654.32;110184.00;0.37;191.15;;;;;33.30;1.00;;;;;;2268385;61;1553;-88
2023/07/01 08:59:48;299768.00;1.00;517.52;102766.00;0.34;178.35;;;;;32.60;1.00;;;;;;2268481;61;1214;-87
2023/07/01 09:02:16;175629.00;0.59;303.96;78338.00;0.26;136.17;;;;;32.70;1.00;;;;;;2268452;61;1613;-87
2023/07/01 09:04:43;221545.00;0.74;383.00;77230.00;0.26;134.25;;;;;32.60;1.00;;;;;;2268392;61;1982;-89
2023/07/01 09:07:11;241838.00;0.81;417.91;76431.00;0.25;132.87;;;;;32.70;1.00;;;;;;2268445;61;1294;-88
2023/07/01 09:09:39;201264.00;0.67;348.10;77698.00;0.26;135.06;;;;;32.80;1.00;;;;;;2268511;61;938;-87
2023/07/01 09:12:06;380203.00;1.27;655.77;115438.00;0.38;200.21;;;;;32.70;1.00;;;;;;2268417;61;1150;-88
2023/07/01 09:14:58;182451.00;0.61;315.71;85278.00;0.28;148.15;;;;;31.50;1.00;;;;;;2268539;61;1043;-87
2023/07/01 09:17:29;364896.00;1.22;629.46;80206.00;0.27;139.39;;;;;31.50;1.00;;;;;;2268484;61;1388;-88
2023/07/01 09:19:58;151187.00;0.50;261.85;0.00;0.00;0.62;;;;;32.20;1.00;;;;;;2268464;61;1023;-87
2023/07/01 09:22:28;41610.00;0.14;72.67;0.00;0.00;0.62;;;;;32.70;1.00;;;;;;2268389;61;1597;-90
2023/07/01 09:24:55;401201.00;1.34;691.87;48625.00;0.16;84.81;;;;;31.90;1.00;;;;;;2268414;61;1919;-86
2023/07/01 09:27:22;127751.00;0.43;221.45;0.00;0.00;0.62;;;;;31.40;1.00;;;;;;2268360;61;1293;-86
2023/07/01 09:29:49;142310.00;0.47;246.55;0.00;0.00;0.62;;;;;30.90;1.00;;;;;;2268371;61;1752;-87
2023/07/01 09:32:28;423563.00;1.41;730.32;153220.00;0.51;265.36;;;;;30.50;1.00;;;;;;2268448;61;1945;-87
2023/07/01 09:34:57;311772.00;1.04;538.16;72139.00;0.24;125.46;;;;;30.60;1.00;;;;;;2268536;61;1175;-88
2023/07/01 09:37:25;314953.00;1.05;543.62;72665.00;0.24;126.37;;;;;30.30;1.00;;;;;;2268524;61;1355;-89
2023/07/01 09:39:52;198756.00;0.66;343.78;0.00;0.00;0.62;;;;;30.10;1.00;;;;;;2268492;61;1684;-89
2023/07/01 09:42:19;113773.00;0.38;197.34;0.00;0.00;0.62;;;;;29.70;1.00;;;;;;2268519;61;1123;-89
2023/07/01 09:45:06;305746.00;1.02;527.80;67926.00;0.23;118.18;;;;;30.10;1.00;;;;;;2268410;61;1909;-88
2023/07/01 09:47:34;650386.00;2.17;1121.30;39167.00;0.13;68.45;;;;;30.40;1.00;;;;;;2286700;56;3761;-89
2023/07/01 09:50:02;234730.00;0.78;405.69;0.00;0.00;0.62;;;;;30.70;1.00;;;;;;2272490;61;1078;-88
2023/07/01 09:52:34;365198.00;1.22;629.98;0.00;0.00;0.62;;;;;30.70;1.00;;;;;;2272419;61;1072;-88
2023/07/01 09:55:02;362794.00;1.21;625.85;0.00;0.00;0.62;;;;;30.80;1.00;;;;;;2272262;61;1548;-89
2023/07/01 09:57:30;375844.00;1.25;648.28;0.00;0.00;0.62;;;;;30.60;1.00;;;;;;2272278;61;1408;-88
2023/07/01 09:59:58;234637.00;0.78;405.53;0.00;0.00;0.62;;;;;30.90;1.00;;;;;;2272454;61;1011;-89
2023/07/01 10:02:25;204066.00;0.68;352.92;0.00;0.00;0.62;;;;;30.80;1.00;;;;;;2272290;61;1071;-90
2023/07/01 10:04:52;177291.00;0.59;306.82;0.00;0.00;0.62;;;;;30.80;1.00;;;;;;2272361;61;1997;-90
2023/07/01 10:07:19;184834.00;0.62;319.81;0.00;0.00;0.62;;;;;31.40;1.00;;;;;;2272346;61;1376;-88
2023/07/01 10:09:51;146036.00;0.49;252.98;0.00;0.00;0.62;;;;;31.40;1.00;;;;;;2272356;61;1017;-87
2023/07/01 10:12:19;225881.00;0.75;390.46;0.00;0.00;0.62;;;;;31.10;1.00;;;;;;2272344;61;1181;-87
2023/07/01 10:14:51;214039.00;0.71;370.09;0.00;0.00;0.62;;;;;30.60;1.00;;;;;;2272225;61;1103;-88
2023/07/01 10:17:19;161942.00;0.54;280.39;0.00;0.00;0.62;;;;;30.60;1.00;;;;;;2272249;61;1415;-88
2023/07/01 10:19:48;227194.00;0.76;392.72;0.00;0.00;0.62;;;;;30.80;1.00;;;;;;2272143;61;1610;-89
2023/07/01 10:22:27;425930.00;1.42;734.39;137444.00;0.46;238.16;;;;;30.50;1.00;;;;;;2272225;61;1713;-88
2023/07/01 10:24:57;297334.00;0.99;513.34;84064.00;0.28;146.06;;;;;30.10;1.00;;;;;;2272223;61;1914;-90
2023/07/01 10:28:16;226439.00;0.75;391.42;80975.00;0.27;140.72;;;;;30.10;1.00;;;;;;2272256;61;1404;-89
2023/07/01 10:31:22;51597.00;0.17;89.95;0.00;0.00;0.62;;;;;30.20;1.00;;;;;;2272200;61;1598;-89
2023/07/01 10:33:53;21425.00;0.07;37.74;0.00;0.00;0.62;;;;;30.00;1.00;;;;;;2271325;61;1140;-88
2023/07/01 10:36:20;55972.00;0.19;97.51;0.00;0.00;0.62;;;;;30.20;1.00;;;;;;2272173;61;1033;-88
2023/07/01 10:38:47;146244.00;0.49;253.33;0.00;0.00;0.62;;;;;30.50;1.00;;;;;;2272200;61;1608;-87
2023/07/01 10:41:52;153736.00;0.51;266.25;0.00;0.00;0.62;;;;;31.00;1.00;;;;;;2272095;61;1044;-88